createdAt,value
2017-11-22T00:02:22.023Z,4.52
2017-11-22T00:07:22.804Z,4.62
2017-11-22T00:12:23.596Z,4.73
2017-11-22T00:17:24.390Z,4.72
2017-11-22T00:22:25.182Z,4.77
2017-11-22T00:27:25.973Z,4.87
2017-11-22T00:32:26.751Z,4.94
2017-11-22T00:37:27.539Z,5.05
2017-11-22T00:42:28.315Z,5.15
2017-11-22T00:47:29.077Z,5.12
2017-11-22T00:52:29.842Z,5.17
2017-11-22T00:57:30.628Z,5.21
2017-11-22T01:02:31.406Z,5.43
2017-11-22T01:07:32.179Z,5.58
2017-11-22T01:12:32.989Z,5.59
2017-11-22T01:17:33.768Z,5.56
2017-11-22T01:22:34.546Z,5.59
2017-11-22T01:27:35.322Z,5.54
2017-11-22T01:32:36.121Z,5.52
2017-11-22T01:37:36.911Z,5.45
2017-11-22T01:42:37.699Z,5.41
2017-11-22T01:47:38.487Z,5.34
2017-11-22T01:52:39.259Z,5.37
2017-11-22T01:57:40.059Z,5.38
2017-11-22T02:02:40.831Z,5.37
2017-11-22T02:07:41.611Z,5.39
2017-11-22T02:12:42.386Z,5.42
2017-11-22T02:17:43.152Z,5.39
2017-11-22T02:22:43.915Z,5.45
2017-11-22T02:27:44.682Z,5.42
2017-11-22T02:32:45.446Z,5.42
2017-11-22T02:37:46.218Z,5.30
2017-11-22T02:42:47.040Z,5.36
2017-11-22T02:47:47.826Z,5.40
2017-11-22T02:52:48.653Z,5.37
2017-11-22T02:57:49.498Z,5.36
2017-11-22T03:02:50.301Z,5.36
2017-11-22T03:07:51.137Z,5.33
2017-11-22T03:12:51.942Z,5.33
2017-11-22T03:17:52.735Z,5.20
2017-11-22T03:22:53.580Z,5.18
2017-11-22T03:27:54.364Z,5.15
2017-11-22T03:32:55.185Z,5.12
2017-11-22T03:37:56.018Z,4.96
2017-11-22T03:42:56.874Z,4.87
2017-11-22T03:48:02.718Z,4.75
2017-11-22T03:53:09.802Z,4.77
2017-11-22T03:58:16.746Z,4.71
2017-11-22T04:03:17.623Z,4.67
2017-11-22T04:08:18.494Z,4.56
2017-11-22T04:13:19.301Z,4.53
2017-11-22T04:18:20.197Z,4.40
2017-11-22T04:23:20.998Z,4.30
2017-11-22T04:28:21.798Z,4.16
2017-11-22T04:33:22.620Z,3.88
2017-11-22T04:38:23.496Z,3.75
2017-11-22T04:43:24.286Z,3.71
2017-11-22T04:48:25.089Z,3.45
2017-11-22T04:53:25.862Z,3.14
2017-11-22T04:58:26.763Z,3.15
2017-11-22T05:03:27.547Z,3.11
2017-11-22T05:08:28.379Z,3.05
2017-11-22T05:13:29.259Z,3.06
2017-11-22T05:18:30.059Z,3.00
2017-11-22T05:23:30.863Z,2.83
2017-11-22T05:28:31.647Z,2.85
2017-11-22T05:33:32.441Z,2.69
2017-11-22T05:38:33.246Z,2.73
2017-11-22T05:43:34.011Z,2.65
2017-11-22T05:48:34.779Z,2.59
2017-11-22T05:53:35.587Z,2.55
2017-11-22T05:58:36.387Z,2.58
2017-11-22T06:03:37.160Z,2.59
2017-11-22T06:08:37.944Z,2.53
2017-11-22T06:13:38.737Z,2.35
2017-11-22T06:18:39.517Z,2.26
2017-11-22T06:23:40.298Z,2.00
2017-11-22T06:28:41.092Z,1.80
2017-11-22T06:33:41.900Z,1.91
2017-11-22T06:38:42.695Z,2.01
2017-11-22T06:43:43.458Z,1.82
2017-11-22T06:48:44.253Z,1.88
2017-11-22T06:53:45.034Z,1.92
2017-11-22T06:58:45.824Z,1.99
2017-11-22T07:03:52.859Z,2.00
2017-11-22T07:08:53.653Z,2.19
2017-11-22T07:13:54.477Z,1.82
2017-11-22T07:18:55.267Z,1.80
2017-11-22T07:23:56.092Z,1.95
2017-11-22T07:28:56.880Z,1.85
2017-11-22T07:33:57.701Z,1.83
2017-11-22T07:38:58.560Z,1.87
2017-11-22T07:43:59.376Z,1.68
2017-11-22T07:49:00.191Z,1.76
2017-11-22T07:54:00.988Z,1.93
2017-11-22T07:59:05.643Z,2.15
2017-11-22T08:04:12.682Z,2.24
2017-11-22T08:09:13.475Z,2.29
2017-11-22T08:14:14.280Z,2.50
2017-11-22T08:19:15.055Z,2.57
2017-11-22T08:24:15.839Z,2.58
2017-11-22T08:29:16.617Z,2.67
2017-11-22T08:34:17.427Z,2.65
2017-11-22T08:39:18.236Z,3.01
2017-11-22T08:44:19.023Z,3.29
2017-11-22T08:49:19.821Z,3.43
2017-11-22T08:54:26.792Z,3.49
2017-11-22T08:59:27.609Z,3.51
2017-11-22T09:04:28.420Z,3.56
2017-11-22T09:09:29.219Z,3.82
2017-11-22T09:14:30.029Z,4.26
2017-11-22T09:19:35.900Z,4.23
2017-11-22T09:24:42.936Z,4.39
2017-11-22T09:29:44.668Z,4.41
2017-11-22T09:34:51.669Z,4.82
2017-11-22T09:39:52.519Z,4.28
2017-11-22T09:44:53.335Z,4.46
2017-11-22T09:49:54.126Z,4.66
2017-11-22T09:54:54.906Z,5.17
2017-11-22T09:59:55.711Z,4.91
2017-11-22T10:04:56.483Z,5.04
2017-11-22T10:09:57.308Z,5.02
2017-11-22T10:14:58.108Z,5.57
2017-11-22T10:20:02.869Z,5.63
2017-11-22T10:25:09.798Z,5.33
2017-11-22T10:30:12.457Z,5.80
2017-11-22T10:35:13.271Z,5.63
2017-11-22T10:40:14.139Z,6.08
2017-11-22T10:45:14.979Z,6.25
2017-11-22T10:50:15.795Z,6.21
2017-11-22T10:55:16.608Z,6.66
2017-11-22T11:00:17.404Z,6.26
2017-11-22T11:05:18.194Z,6.93
2017-11-22T11:10:19.001Z,6.98
2017-11-22T11:15:19.792Z,6.94
2017-11-22T11:20:20.591Z,7.09
2017-11-22T11:25:21.385Z,6.94
2017-11-22T11:30:22.164Z,7.47
2017-11-22T11:35:35.303Z,7.41
2017-11-22T11:40:36.134Z,7.13
2017-11-22T11:45:36.910Z,7.79
2017-11-22T11:50:37.695Z,7.99
2017-11-22T11:55:38.479Z,7.91
2017-11-22T12:00:39.276Z,8.34
2017-11-22T12:05:40.055Z,7.06
2017-11-22T12:10:40.825Z,6.74
2017-11-22T12:15:45.415Z,7.01
2017-11-22T12:20:52.508Z,7.18
2017-11-22T12:25:53.307Z,7.37
2017-11-22T12:30:54.072Z,7.32
2017-11-22T12:35:54.844Z,7.66
2017-11-22T12:40:55.626Z,7.68
2017-11-22T12:46:00.517Z,7.70
2017-11-22T12:51:01.294Z,7.47
2017-11-22T12:56:02.099Z,7.39
2017-11-22T13:01:02.895Z,7.39
2017-11-22T13:06:03.731Z,7.73
2017-11-22T13:11:09.478Z,7.73
2017-11-22T13:16:10.296Z,7.84
2017-11-22T13:21:14.863Z,7.94
2017-11-22T13:26:15.640Z,8.09
2017-11-22T13:31:16.408Z,8.14
2017-11-22T13:36:17.241Z,8.11
2017-11-22T13:41:18.864Z,8.06
2017-11-22T13:46:19.654Z,8.05
2017-11-22T13:51:20.451Z,8.07
2017-11-22T13:56:21.246Z,8.06
2017-11-22T14:01:22.082Z,8.11
2017-11-22T14:06:22.852Z,8.11
2017-11-22T14:11:23.646Z,8.15
2017-11-22T14:16:24.441Z,8.19
2017-11-22T14:21:25.227Z,8.29
2017-11-22T14:26:26.083Z,8.46
2017-11-22T14:31:26.867Z,8.51
2017-11-22T14:36:27.672Z,8.50
2017-11-22T14:41:28.511Z,8.41
2017-11-22T14:46:29.307Z,8.26
2017-11-22T14:51:30.125Z,8.13
2017-11-22T14:56:32.934Z,7.95
2017-11-22T15:01:33.788Z,7.76
2017-11-22T15:06:34.628Z,7.54
2017-11-22T15:11:35.482Z,7.32
2017-11-22T15:16:36.321Z,7.14
2017-11-22T15:21:37.150Z,7.05
2017-11-22T15:26:37.975Z,7.08
2017-11-22T15:31:38.793Z,6.81
2017-11-22T15:36:39.624Z,6.64
2017-11-22T15:41:41.237Z,6.51
2017-11-22T15:46:42.030Z,6.45
2017-11-22T15:51:42.892Z,6.32
2017-11-22T15:56:43.687Z,6.25
2017-11-22T16:01:44.482Z,6.14
2017-11-22T16:06:45.290Z,6.04
2017-11-22T16:11:46.094Z,5.96
2017-11-22T16:16:46.892Z,5.80
2017-11-22T16:21:47.715Z,5.75
2017-11-22T16:26:48.521Z,5.63
2017-11-22T16:31:49.326Z,5.44
2017-11-22T16:36:50.110Z,5.30
2017-11-22T16:41:50.973Z,5.24
2017-11-22T16:46:51.768Z,5.27
2017-11-22T16:51:52.563Z,5.33
2017-11-22T16:56:53.410Z,5.26
2017-11-22T17:01:54.187Z,5.34
2017-11-22T17:06:54.988Z,5.30
2017-11-22T17:11:55.807Z,5.29
2017-11-22T17:16:56.606Z,5.33
2017-11-22T17:21:57.812Z,5.36
2017-11-22T17:26:58.652Z,5.39
2017-11-22T17:31:59.508Z,5.51
2017-11-22T17:37:00.486Z,5.43
2017-11-22T17:42:01.313Z,5.29
2017-11-22T17:47:02.173Z,5.21
2017-11-22T17:52:03.028Z,5.22
2017-11-22T17:57:03.887Z,5.28
2017-11-22T18:02:04.683Z,5.22
2017-11-22T18:07:05.514Z,5.14
2017-11-22T18:12:06.316Z,4.94
2017-11-22T18:17:07.134Z,4.98
2017-11-22T18:22:07.929Z,4.92
2017-11-22T18:27:08.722Z,4.94
2017-11-22T18:32:09.549Z,4.90
2017-11-22T18:37:10.397Z,4.79
2017-11-22T18:42:11.262Z,4.84
2017-11-22T18:47:12.101Z,4.76
2017-11-22T18:52:12.862Z,4.61
2017-11-22T18:57:13.711Z,4.46
2017-11-22T19:02:14.558Z,4.42
2017-11-22T19:07:15.399Z,4.33
2017-11-22T19:12:16.266Z,4.35
2017-11-22T19:17:17.104Z,4.39
2017-11-22T19:22:17.947Z,4.59
2017-11-22T19:27:18.773Z,4.45
2017-11-22T19:32:19.631Z,4.34
2017-11-22T19:37:20.399Z,4.16
2017-11-22T19:42:21.270Z,4.25
2017-11-22T19:47:22.031Z,4.29
2017-11-22T19:52:22.808Z,4.20
2017-11-22T19:57:23.666Z,4.14
2017-11-22T20:02:24.448Z,4.09
2017-11-22T20:07:37.633Z,3.94
2017-11-22T20:12:38.484Z,3.80
2017-11-22T20:17:39.322Z,3.72
2017-11-22T20:22:40.164Z,3.60
2017-11-22T20:27:40.947Z,3.65
2017-11-22T20:32:41.806Z,3.71
2017-11-22T20:37:42.747Z,3.72
2017-11-22T20:42:46.711Z,3.69
2017-11-22T20:47:47.546Z,3.61
2017-11-22T20:52:48.373Z,3.37
2017-11-22T20:57:49.198Z,3.45
2017-11-22T21:02:50.057Z,3.39
2017-11-22T21:07:50.971Z,3.35
2017-11-22T21:12:52.063Z,3.40
2017-11-22T21:17:52.894Z,3.42
2017-11-22T21:22:53.749Z,3.44
2017-11-22T21:27:54.662Z,3.44
2017-11-22T21:32:55.504Z,3.41
2017-11-22T21:37:56.345Z,3.40
2017-11-22T21:42:57.161Z,3.39
2017-11-22T21:47:57.989Z,3.38
2017-11-22T21:52:58.797Z,3.27
2017-11-22T21:57:59.656Z,3.25
2017-11-22T22:03:00.494Z,3.22
2017-11-22T22:08:01.318Z,3.22
2017-11-22T22:13:02.145Z,3.19
2017-11-22T22:18:02.985Z,3.20
2017-11-22T22:23:03.788Z,3.06
2017-11-22T22:28:04.557Z,2.97
2017-11-22T22:33:05.429Z,2.87
2017-11-22T22:38:06.199Z,2.78
2017-11-22T22:43:07.047Z,2.79
2017-11-22T22:48:07.930Z,2.86
2017-11-22T22:53:08.745Z,2.90
2017-11-22T22:58:09.604Z,2.98
2017-11-22T23:03:10.458Z,3.03
2017-11-22T23:08:11.378Z,2.92
2017-11-22T23:13:12.312Z,2.88
2017-11-22T23:18:13.136Z,2.87
2017-11-22T23:23:13.935Z,2.85
2017-11-22T23:28:14.720Z,2.76
2017-11-22T23:33:15.574Z,2.75
2017-11-22T23:38:16.447Z,2.81
2017-11-22T23:43:17.279Z,2.72
2017-11-22T23:48:18.135Z,2.81
2017-11-22T23:53:19.084Z,2.80
2017-11-22T23:58:19.848Z,2.66
